createdAt,value
2022-10-29T00:00:35.201Z,11.10
2022-10-29T00:03:32.134Z,11.00
2022-10-29T00:06:28.974Z,10.90
2022-10-29T00:09:25.829Z,11.00
2022-10-29T00:12:22.652Z,10.90
2022-10-29T00:15:19.545Z,10.80
2022-10-29T00:18:16.384Z,10.80
2022-10-29T00:21:19.794Z,10.90
2022-10-29T00:24:17.033Z,10.80
2022-10-29T00:27:13.866Z,10.90
2022-10-29T00:30:12.025Z,10.80
2022-10-29T00:33:08.898Z,10.80
2022-10-29T00:36:12.755Z,10.70
2022-10-29T00:39:15.704Z,10.60
2022-10-29T00:42:15.928Z,10.60
2022-10-29T00:45:21.110Z,10.60
2022-10-29T00:48:18.095Z,10.50
2022-10-29T00:51:16.610Z,10.40
2022-10-29T00:54:16.036Z,10.30
2022-10-29T00:57:38.971Z,10.30
2022-10-29T01:00:35.791Z,10.30
2022-10-29T01:03:32.664Z,10.30
2022-10-29T01:06:30.954Z,10.20
2022-10-29T01:09:27.792Z,10.30
2022-10-29T01:12:59.276Z,10.20
2022-10-29T01:15:56.034Z,10.10
2022-10-29T01:19:09.044Z,10.10
2022-10-29T01:22:43.703Z,10.10
2022-10-29T01:26:19.480Z,10.10
2022-10-29T01:29:36.529Z,10.10
2022-10-29T01:32:40.934Z,10.00
2022-10-29T01:36:33.599Z,10.00
2022-10-29T01:39:40.728Z,9.90
2022-10-29T01:42:49.678Z,9.90
2022-10-29T01:45:56.431Z,9.90
2022-10-29T01:49:02.468Z,10.00
2022-10-29T01:52:02.970Z,10.10
2022-10-29T01:54:59.873Z,10.30
2022-10-29T01:57:57.246Z,10.10
2022-10-29T02:01:35.233Z,10.00
2022-10-29T02:04:54.377Z,10.20
2022-10-29T02:08:03.090Z,10.10
2022-10-29T02:11:30.768Z,10.00
2022-10-29T02:14:38.323Z,9.90
2022-10-29T02:17:35.873Z,9.80
2022-10-29T02:20:32.848Z,9.80
2022-10-29T02:23:29.692Z,9.80
2022-10-29T02:26:26.511Z,9.70
2022-10-29T02:29:23.432Z,9.70
2022-10-29T02:32:20.242Z,9.70
2022-10-29T02:35:17.196Z,9.90
2022-10-29T02:38:14.005Z,9.70
2022-10-29T02:41:10.799Z,9.60
2022-10-29T02:44:07.650Z,9.50
2022-10-29T02:47:04.512Z,9.60
2022-10-29T02:50:01.440Z,9.60
2022-10-29T02:52:58.292Z,9.60
2022-10-29T02:55:55.111Z,9.60
2022-10-29T02:58:52.456Z,9.50
2022-10-29T03:01:49.445Z,9.60
2022-10-29T03:04:46.430Z,9.60
2022-10-29T03:07:43.258Z,9.50
2022-10-29T03:10:40.131Z,9.50
2022-10-29T03:16:34.989Z,9.60
2022-10-29T03:19:31.863Z,9.60
2022-10-29T03:22:28.714Z,9.60
2022-10-29T03:25:25.548Z,9.80
2022-10-29T03:28:24.288Z,9.80
2022-10-29T03:31:21.106Z,9.70
2022-10-29T03:34:18.018Z,9.60
2022-10-29T03:37:14.844Z,9.60
2022-10-29T03:40:11.769Z,9.60
2022-10-29T03:43:08.632Z,9.50
2022-10-29T03:46:06.315Z,9.40
2022-10-29T03:49:03.172Z,9.50
2022-10-29T03:52:00.016Z,9.40
2022-10-29T03:54:56.915Z,9.30
2022-10-29T03:57:54.086Z,9.40
2022-10-29T04:01:03.065Z,9.40
2022-10-29T04:03:59.891Z,9.30
2022-10-29T04:06:56.708Z,9.30
2022-10-29T04:09:53.534Z,9.40
2022-10-29T04:12:50.356Z,9.50
2022-10-29T04:15:47.189Z,9.60
2022-10-29T04:18:46.297Z,9.70
2022-10-29T04:31:33.533Z,9.40
2022-10-29T04:34:30.389Z,9.40
2022-10-29T04:37:29.737Z,9.40
2022-10-29T04:40:26.556Z,9.40
2022-10-29T04:43:23.379Z,9.40
2022-10-29T04:46:20.220Z,9.40
2022-10-29T04:49:17.147Z,9.40
2022-10-29T04:52:14.033Z,9.30
2022-10-29T04:55:10.883Z,9.20
2022-10-29T04:58:15.091Z,9.20
2022-10-29T05:01:12.017Z,9.30
2022-10-29T05:04:09.157Z,9.40
2022-10-29T05:07:05.996Z,9.30
2022-10-29T05:10:02.900Z,9.20
2022-10-29T05:13:09.785Z,9.20
2022-10-29T05:16:07.247Z,9.20
2022-10-29T05:19:05.005Z,9.20
2022-10-29T05:22:01.904Z,9.10
2022-10-29T05:24:58.723Z,9.10
2022-10-29T05:28:07.753Z,9.20
2022-10-29T05:31:04.995Z,9.30
2022-10-29T05:34:01.820Z,9.40
2022-10-29T05:36:58.736Z,9.50
2022-10-29T05:39:55.615Z,9.50
2022-10-29T05:42:52.615Z,9.40
2022-10-29T05:45:49.424Z,9.30
2022-10-29T05:48:46.301Z,9.20
2022-10-29T05:51:43.128Z,9.20
2022-10-29T05:54:39.945Z,9.30
2022-10-29T05:57:36.787Z,9.20
2022-10-29T06:00:37.448Z,9.20
2022-10-29T06:03:34.414Z,9.20
2022-10-29T06:06:31.396Z,9.20
2022-10-29T06:09:28.297Z,9.20
2022-10-29T06:12:25.147Z,9.20
2022-10-29T06:15:23.139Z,9.20
2022-10-29T06:18:19.965Z,9.30
2022-10-29T06:21:16.860Z,9.30
2022-10-29T06:24:13.760Z,9.40
2022-10-29T06:27:11.032Z,9.50
2022-10-29T06:30:08.840Z,9.60
2022-10-29T06:33:06.021Z,9.60
2022-10-29T06:36:03.033Z,9.70
2022-10-29T06:38:59.969Z,9.70
2022-10-29T06:41:56.917Z,9.80
2022-10-29T06:44:53.802Z,9.90
2022-10-29T06:47:50.650Z,10.10
2022-10-29T06:50:47.532Z,10.00
2022-10-29T06:53:44.424Z,10.00
2022-10-29T06:56:41.443Z,10.00
2022-10-29T06:59:38.453Z,10.20
2022-10-29T07:02:35.368Z,10.30
2022-10-29T07:05:33.169Z,10.30
2022-10-29T07:08:30.606Z,10.40
2022-10-29T07:11:27.463Z,10.60
2022-10-29T07:14:24.279Z,10.60
2022-10-29T07:17:21.109Z,10.80
2022-10-29T07:20:17.974Z,10.80
2022-10-29T07:23:14.895Z,10.90
2022-10-29T07:26:11.737Z,11.10
2022-10-29T07:29:08.585Z,11.20
2022-10-29T07:32:05.562Z,11.30
2022-10-29T07:35:02.565Z,11.40
2022-10-29T07:38:09.086Z,11.50
2022-10-29T07:41:07.293Z,11.60
2022-10-29T07:44:04.231Z,11.60
2022-10-29T07:47:03.064Z,11.60
2022-10-29T07:50:00.426Z,11.60
2022-10-29T07:53:00.864Z,11.70
2022-10-29T07:55:58.124Z,11.60
2022-10-29T07:58:54.998Z,11.60
2022-10-29T08:01:52.003Z,11.70
2022-10-29T08:04:49.003Z,11.70
2022-10-29T08:07:45.839Z,11.90
2022-10-29T08:10:42.691Z,12.00
2022-10-29T08:13:39.514Z,12.10
2022-10-29T08:16:36.354Z,12.20
2022-10-29T08:19:33.325Z,12.40
2022-10-29T08:22:31.019Z,12.70
2022-10-29T08:25:28.096Z,12.80
2022-10-29T08:28:25.824Z,13.00
2022-10-29T08:31:22.909Z,13.20
2022-10-29T08:34:19.771Z,13.30
2022-10-29T08:37:16.620Z,13.30
2022-10-29T08:40:34.669Z,13.50
2022-10-29T08:44:16.743Z,13.60
2022-10-29T08:47:23.421Z,13.70
2022-10-29T08:50:41.329Z,13.80
2022-10-29T08:54:10.466Z,13.90
2022-10-29T08:57:15.890Z,13.90
2022-10-29T09:00:26.040Z,14.00
2022-10-29T09:03:24.335Z,14.00
2022-10-29T09:06:53.786Z,14.10
2022-10-29T09:10:01.678Z,14.10
2022-10-29T09:13:49.870Z,14.30
2022-10-29T09:17:01.008Z,14.40
2022-10-29T09:20:29.213Z,14.60
2022-10-29T09:24:05.124Z,14.90
2022-10-29T09:27:29.426Z,15.40
2022-10-29T09:30:31.682Z,15.70
2022-10-29T09:33:29.321Z,15.60
2022-10-29T09:36:26.583Z,15.60
2022-10-29T09:39:40.542Z,15.60
2022-10-29T09:42:42.351Z,15.60
2022-10-29T09:45:52.624Z,15.60
2022-10-29T09:49:36.076Z,15.60
2022-10-29T09:52:36.941Z,15.60
2022-10-29T09:55:43.802Z,15.70
2022-10-29T09:58:45.896Z,15.80
2022-10-29T10:01:42.802Z,16.00
2022-10-29T10:04:46.734Z,16.00
2022-10-29T10:08:07.522Z,16.10
2022-10-29T10:11:07.941Z,16.20
2022-10-29T10:14:20.695Z,16.30
2022-10-29T10:17:17.582Z,16.30
2022-10-29T10:20:37.213Z,16.30
2022-10-29T10:23:41.806Z,16.40
2022-10-29T10:26:43.312Z,16.40
2022-10-29T10:29:40.296Z,16.40
2022-10-29T10:32:37.238Z,16.40
2022-10-29T10:35:36.128Z,16.50
2022-10-29T10:38:44.436Z,16.90
2022-10-29T10:41:43.090Z,18.40
2022-10-29T10:44:52.289Z,19.00
2022-10-29T10:47:57.585Z,19.50
2022-10-29T10:51:25.320Z,20.10
2022-10-29T10:54:39.133Z,19.90
2022-10-29T10:57:50.051Z,19.70
2022-10-29T11:01:16.435Z,20.20
2022-10-29T11:04:30.442Z,21.00
2022-10-29T11:07:33.329Z,21.10
2022-10-29T11:11:00.240Z,20.00
2022-10-29T11:14:05.444Z,19.50
2022-10-29T11:17:07.155Z,19.00
2022-10-29T11:20:16.077Z,18.80
2022-10-29T11:23:34.188Z,18.60
2022-10-29T11:26:53.430Z,18.50
2022-10-29T11:30:09.591Z,18.50
2022-10-29T11:33:40.733Z,18.60
2022-10-29T11:36:50.760Z,18.70
2022-10-29T11:40:23.542Z,18.60
2022-10-29T11:43:21.439Z,18.70
2022-10-29T11:46:30.918Z,18.70
2022-10-29T11:50:14.955Z,18.80
2022-10-29T11:53:32.591Z,19.00
2022-10-29T11:56:58.960Z,18.90
2022-10-29T12:00:16.716Z,19.00
2022-10-29T12:04:12.601Z,19.00
2022-10-29T12:07:53.350Z,18.80
2022-10-29T12:10:59.848Z,18.90
2022-10-29T12:14:29.969Z,18.80
2022-10-29T12:17:43.946Z,18.80
2022-10-29T12:21:07.319Z,19.00
2022-10-29T12:25:02.090Z,19.00
2022-10-29T12:28:19.152Z,19.20
2022-10-29T12:31:45.157Z,19.10
2022-10-29T12:34:50.287Z,19.10
2022-10-29T12:38:05.872Z,19.10
2022-10-29T12:41:20.938Z,19.00
2022-10-29T12:45:23.851Z,18.90
2022-10-29T12:48:49.345Z,18.80
2022-10-29T12:52:04.558Z,18.90
2022-10-29T12:55:04.567Z,18.90
2022-10-29T12:58:50.656Z,18.80
2022-10-29T13:05:10.080Z,18.70
2022-10-29T13:08:06.815Z,18.60
2022-10-29T13:11:23.449Z,18.30
2022-10-29T13:14:38.372Z,18.40
2022-10-29T13:17:39.738Z,18.40
2022-10-29T13:20:46.284Z,18.40
2022-10-29T13:24:03.626Z,18.40
2022-10-29T13:27:33.375Z,18.50
2022-10-29T13:30:30.308Z,18.50
2022-10-29T13:33:27.071Z,18.60
2022-10-29T13:36:23.779Z,18.60
2022-10-29T13:39:20.886Z,18.60
2022-10-29T13:42:18.196Z,18.70
2022-10-29T13:45:15.295Z,18.70
2022-10-29T13:48:24.852Z,18.70
2022-10-29T13:51:34.369Z,18.70
2022-10-29T13:54:52.931Z,18.40
2022-10-29T13:58:33.817Z,18.50
2022-10-29T14:01:33.685Z,18.30
2022-10-29T14:04:37.587Z,18.10
2022-10-29T14:07:56.138Z,18.00
2022-10-29T14:11:02.476Z,17.90
2022-10-29T14:14:02.819Z,17.80
2022-10-29T14:17:18.253Z,17.90
2022-10-29T14:20:28.845Z,18.00
2022-10-29T14:23:26.866Z,17.90
2022-10-29T14:26:24.965Z,17.60
2022-10-29T14:29:24.539Z,17.50
2022-10-29T14:32:22.645Z,17.30
2022-10-29T14:35:21.496Z,17.40
2022-10-29T14:38:20.962Z,17.30
2022-10-29T14:41:19.322Z,17.40
2022-10-29T14:44:30.055Z,17.00
2022-10-29T14:47:50.255Z,17.00
2022-10-29T14:50:50.806Z,16.80
2022-10-29T14:53:56.365Z,17.00
2022-10-29T14:56:59.487Z,16.70
2022-10-29T15:00:04.021Z,16.40
2022-10-29T15:03:01.768Z,16.20
2022-10-29T15:06:24.801Z,16.10
2022-10-29T15:09:28.053Z,16.10
2022-10-29T15:12:34.926Z,15.90
2022-10-29T15:15:32.179Z,15.90
2022-10-29T15:18:30.641Z,15.90
2022-10-29T15:21:33.070Z,15.90
2022-10-29T15:24:30.072Z,15.70
2022-10-29T15:27:27.157Z,15.60
2022-10-29T15:30:35.261Z,15.60
2022-10-29T15:33:32.479Z,15.60
2022-10-29T15:36:50.038Z,15.70
2022-10-29T15:40:04.776Z,15.50
2022-10-29T15:43:30.607Z,15.30
2022-10-29T15:46:35.090Z,15.20
2022-10-29T15:49:32.793Z,15.00
2022-10-29T15:52:39.150Z,15.00
2022-10-29T15:55:38.529Z,14.80
2022-10-29T15:58:35.409Z,14.70
2022-10-29T16:01:32.359Z,14.60
2022-10-29T16:04:29.285Z,14.60
2022-10-29T16:07:26.151Z,14.30
2022-10-29T16:10:23.203Z,14.30
2022-10-29T16:13:20.681Z,14.20
2022-10-29T16:16:20.933Z,14.10
2022-10-29T16:19:17.776Z,13.90
2022-10-29T16:22:34.991Z,13.90
2022-10-29T16:25:32.103Z,13.80
2022-10-29T16:28:28.977Z,13.70
2022-10-29T16:31:28.508Z,13.60
2022-10-29T16:34:25.352Z,13.60
2022-10-29T16:37:22.220Z,13.50
2022-10-29T16:40:22.778Z,13.50
2022-10-29T16:43:19.960Z,13.50
2022-10-29T16:46:16.855Z,13.40
2022-10-29T16:49:13.689Z,13.30
2022-10-29T16:52:10.610Z,13.30
2022-10-29T16:55:07.661Z,13.30
2022-10-29T16:58:08.868Z,13.20
2022-10-29T17:01:08.544Z,13.20
2022-10-29T17:04:05.751Z,13.30
2022-10-29T17:07:02.790Z,13.30
2022-10-29T17:09:59.761Z,13.20
2022-10-29T17:12:57.296Z,13.20
2022-10-29T17:15:54.476Z,13.20
2022-10-29T17:18:51.991Z,13.10
2022-10-29T17:21:48.889Z,13.10
2022-10-29T17:24:46.044Z,13.10
2022-10-29T17:27:42.955Z,13.10
2022-10-29T17:30:40.285Z,13.00
2022-10-29T17:33:37.727Z,12.90
2022-10-29T17:36:36.910Z,12.90
2022-10-29T17:39:33.861Z,13.00
2022-10-29T17:42:31.217Z,12.90
2022-10-29T17:45:28.204Z,13.00
2022-10-29T17:48:25.379Z,13.00
2022-10-29T17:51:22.915Z,12.90
2022-10-29T17:54:21.369Z,12.90
2022-10-29T17:57:18.222Z,12.90
2022-10-29T18:00:16.224Z,12.90
2022-10-29T18:03:13.141Z,12.90
2022-10-29T18:06:13.482Z,12.90
2022-10-29T18:09:10.413Z,12.80
2022-10-29T18:12:07.594Z,12.80
2022-10-29T18:15:05.395Z,12.80
2022-10-29T18:18:02.357Z,12.70
2022-10-29T18:20:59.189Z,12.70
2022-10-29T18:23:56.099Z,12.60
2022-10-29T18:26:52.944Z,12.50
2022-10-29T18:29:50.302Z,12.50
2022-10-29T18:32:47.134Z,12.50
2022-10-29T18:35:43.961Z,12.60
2022-10-29T18:38:41.058Z,12.50
2022-10-29T18:41:37.901Z,12.60
2022-10-29T18:44:34.822Z,12.50
2022-10-29T18:47:31.655Z,12.50
2022-10-29T18:50:28.511Z,12.40
2022-10-29T18:53:25.347Z,12.40
2022-10-29T18:56:23.556Z,12.40
2022-10-29T18:59:21.484Z,12.50
2022-10-29T19:02:18.501Z,12.40
2022-10-29T19:05:15.516Z,12.40
2022-10-29T19:08:13.196Z,12.40
2022-10-29T19:11:16.643Z,12.40
2022-10-29T19:14:14.420Z,12.40
2022-10-29T19:17:11.336Z,12.40
2022-10-29T19:20:08.726Z,12.40
2022-10-29T19:23:05.641Z,12.40
2022-10-29T19:26:19.229Z,12.40
2022-10-29T19:29:16.359Z,12.20
2022-10-29T19:32:13.271Z,12.20
2022-10-29T19:35:11.151Z,12.20
2022-10-29T19:38:07.998Z,12.00
2022-10-29T19:41:04.957Z,12.00
2022-10-29T19:44:03.015Z,12.00
2022-10-29T19:47:00.097Z,12.10
2022-10-29T19:49:57.006Z,12.00
2022-10-29T19:52:53.887Z,12.00
2022-10-29T19:55:52.257Z,12.00
2022-10-29T19:58:49.768Z,12.00
2022-10-29T20:01:48.534Z,11.90
2022-10-29T20:04:45.633Z,11.90
2022-10-29T20:07:42.528Z,12.00
2022-10-29T20:10:39.786Z,11.90
2022-10-29T20:13:37.833Z,11.90
2022-10-29T20:16:34.747Z,12.00
2022-10-29T20:19:31.613Z,12.00
2022-10-29T20:22:28.529Z,12.00
2022-10-29T20:25:26.044Z,12.10
2022-10-29T20:28:23.174Z,12.10
2022-10-29T20:31:21.547Z,12.00
2022-10-29T20:34:18.498Z,12.10
2022-10-29T20:37:15.593Z,12.00
2022-10-29T20:40:13.204Z,12.00
2022-10-29T20:43:10.081Z,12.00
2022-10-29T20:46:07.202Z,11.90
2022-10-29T20:49:04.046Z,11.80
2022-10-29T20:52:00.882Z,11.80
2022-10-29T20:54:57.695Z,11.80
2022-10-29T20:57:54.795Z,11.60
2022-10-29T21:00:51.903Z,11.60
2022-10-29T21:03:50.503Z,11.50
2022-10-29T21:06:47.364Z,11.50
2022-10-29T21:09:44.708Z,11.50
2022-10-29T21:12:41.636Z,11.50
2022-10-29T21:15:38.460Z,11.40
2022-10-29T21:18:40.003Z,11.40
2022-10-29T21:21:36.927Z,11.50
2022-10-29T21:24:33.813Z,11.40
2022-10-29T21:27:30.665Z,11.50
2022-10-29T21:30:27.520Z,11.40
2022-10-29T21:33:24.404Z,11.40
2022-10-29T21:36:22.005Z,11.20
2022-10-29T21:39:18.863Z,11.20
2022-10-29T21:42:15.706Z,11.20
2022-10-29T21:45:12.641Z,11.00
2022-10-29T21:48:10.896Z,11.00
2022-10-29T21:51:13.169Z,11.10
2022-10-29T21:54:09.998Z,11.00
2022-10-29T21:57:06.881Z,10.90
2022-10-29T22:00:09.752Z,10.80
2022-10-29T22:03:06.606Z,10.80
2022-10-29T22:06:12.543Z,10.90
2022-10-29T22:09:11.800Z,11.00
2022-10-29T22:12:08.673Z,11.00
2022-10-29T22:15:06.781Z,10.90
2022-10-29T22:18:03.690Z,10.80
2022-10-29T22:21:07.455Z,10.80
2022-10-29T22:24:04.819Z,10.70
2022-10-29T22:27:01.782Z,10.70
2022-10-29T22:29:58.642Z,10.70
2022-10-29T22:32:55.476Z,10.70
2022-10-29T22:35:52.340Z,10.70
2022-10-29T22:38:59.911Z,10.60
2022-10-29T22:41:56.733Z,10.80
2022-10-29T22:44:53.578Z,10.60
2022-10-29T22:47:50.389Z,10.60
2022-10-29T22:50:47.207Z,10.60
2022-10-29T22:53:45.656Z,10.60
2022-10-29T22:56:42.495Z,10.50
2022-10-29T22:59:39.386Z,10.40
2022-10-29T23:02:36.355Z,10.50
2022-10-29T23:05:33.248Z,10.60
2022-10-29T23:08:30.218Z,10.50
2022-10-29T23:11:30.699Z,10.50
2022-10-29T23:14:27.742Z,10.40
2022-10-29T23:17:24.566Z,10.40
2022-10-29T23:20:21.450Z,10.40
2022-10-29T23:23:18.276Z,10.40
2022-10-29T23:26:15.404Z,10.30
2022-10-29T23:29:12.241Z,10.30
2022-10-29T23:32:09.092Z,10.30
2022-10-29T23:35:06.305Z,10.30
2022-10-29T23:38:03.144Z,10.40
2022-10-29T23:41:00.760Z,10.30
2022-10-29T23:43:58.444Z,10.30
2022-10-29T23:46:55.266Z,10.30
2022-10-29T23:49:52.097Z,10.20
2022-10-29T23:52:48.928Z,10.10
2022-10-29T23:55:46.517Z,10.10
2022-10-29T23:58:43.359Z,10.10
